Time;durP1;ratioP1;P1;durP2;ratioP2;P2;SDS_P1;SDS_P2;PMS_P1;PMS_P2;Temp;Humidity;BMP_temperature;BMP_pressure;BME280_temperature;BME280_humidity;BME280_pressure;Samples;Min_cycle;Max_cycle;Signal;HPM_P1;HPM_P2
2023/02/23 00:00:44;;;;;;;7.38;2.80;;;;;;;;;;4828661;29;20045;-85
2023/02/23 01:00:19;;;;;;;8.13;2.47;;;;;;;;;;5954831;23;20035;-78
2023/02/23 01:02:46;;;;;;;9.20;2.88;;;;;;;;;;4895376;29;20045;-77
2023/02/23 01:05:21;;;;;;;6.55;2.72;;;;;;;;;;4895855;29;20044;-77
2023/02/23 01:07:48;;;;;;;5.43;2.83;;;;;;;;;;4896328;29;20036;-77
2023/02/23 01:10:20;;;;;;;5.03;2.78;;;;;;;;;;4895964;29;20021;-77
2023/02/23 01:12:47;;;;;;;4.88;2.42;;;;;;;;;;4896037;29;20032;-76
2023/02/23 01:15:13;;;;;;;14.20;3.10;;;;;;;;;;4895508;29;20504;-77
2023/02/23 01:17:39;;;;;;;9.57;2.63;;;;;;;;;;4895184;29;20033;-77
2023/02/23 01:20:16;;;;;;;8.80;2.70;;;;;;;;;;4895394;29;20085;-77
2023/02/23 01:22:44;;;;;;;5.55;2.17;;;;;;;;;;4895432;29;20035;-77
2023/02/23 01:25:11;;;;;;;3.92;2.45;;;;;;;;;;4895450;29;20033;-75
2023/02/23 01:27:40;;;;;;;8.52;3.15;;;;;;;;;;4894969;29;20041;-76
2023/02/23 01:30:08;;;;;;;6.75;2.95;;;;;;;;;;4895385;29;20089;-76
2023/02/23 01:32:35;;;;;;;6.60;2.40;;;;;;;;;;4895101;29;20053;-76
2023/02/23 01:35:03;;;;;;;5.05;2.67;;;;;;;;;;4878299;29;20031;-77
2023/02/23 01:37:29;;;;;;;5.50;2.22;;;;;;;;;;4893516;29;20025;-76
2023/02/23 01:39:58;;;;;;;10.77;2.80;;;;;;;;;;4894796;29;20029;-79
2023/02/23 01:42:24;;;;;;;7.60;2.42;;;;;;;;;;4895086;29;20108;-77
2023/02/23 01:45:01;;;;;;;8.77;2.60;;;;;;;;;;4895085;29;20025;-77
2023/02/23 01:47:27;;;;;;;9.65;2.90;;;;;;;;;;4895161;29;20443;-77
2023/02/23 01:49:53;;;;;;;8.32;3.10;;;;;;;;;;4895277;29;20033;-76
2023/02/23 01:52:21;;;;;;;5.07;2.55;;;;;;;;;;4895494;29;20040;-77
2023/02/23 01:54:50;;;;;;;7.68;2.85;;;;;;;;;;4894416;29;20032;-76
2023/02/23 01:57:18;;;;;;;5.72;3.10;;;;;;;;;;4895148;29;20050;-77
2023/02/23 01:59:46;;;;;;;4.22;2.53;;;;;;;;;;4894579;29;20033;-76
2023/02/23 02:02:16;;;;;;;8.05;2.88;;;;;;;;;;4894424;29;20049;-76
2023/02/23 02:04:45;;;;;;;6.22;2.30;;;;;;;;;;4894535;29;20085;-76
2023/02/23 02:07:13;;;;;;;8.55;2.47;;;;;;;;;;4894264;29;20061;-76
2023/02/23 02:09:41;;;;;;;10.98;3.00;;;;;;;;;;4894312;29;20045;-77
2023/02/23 02:12:17;;;;;;;5.20;2.45;;;;;;;;;;4894712;29;20104;-77
2023/02/23 02:14:44;;;;;;;6.13;2.58;;;;;;;;;;4877725;29;20029;-77
2023/02/23 02:17:29;;;;;;;9.70;3.22;;;;;;;;;;4894667;29;20033;-78
2023/02/23 02:20:14;;;;;;;9.43;3.08;;;;;;;;;;4894006;29;20036;-76
2023/02/23 02:22:40;;;;;;;4.90;2.42;;;;;;;;;;4877447;29;20041;-78
2023/02/23 02:25:10;;;;;;;6.10;2.42;;;;;;;;;;4880585;29;20152;-78
2023/02/23 02:28:02;;;;;;;4.35;2.30;;;;;;;;;;4899697;29;20029;-78
2023/02/23 02:30:38;;;;;;;8.43;2.70;;;;;;;;;;4878521;29;20088;-76
2023/02/23 02:33:28;;;;;;;9.35;2.75;;;;;;;;;;4894102;29;20025;-76
2023/02/23 02:36:18;;;;;;;8.82;2.67;;;;;;;;;;4877444;29;20484;-77
2023/02/23 02:38:57;;;;;;;11.55;3.95;;;;;;;;;;4877352;29;20528;-76
2023/02/23 02:41:34;;;;;;;4.68;2.40;;;;;;;;;;4893544;29;20054;-76
2023/02/23 02:44:06;;;;;;;6.43;2.15;;;;;;;;;;4893971;29;20172;-77
2023/02/23 02:46:37;;;;;;;10.60;2.90;;;;;;;;;;4893516;29;20033;-77
2023/02/23 02:49:07;;;;;;;5.22;2.30;;;;;;;;;;4893790;29;20047;-76
2023/02/23 02:51:38;;;;;;;6.20;2.50;;;;;;;;;;4893295;29;20081;-76
2023/02/23 02:54:12;;;;;;;4.80;2.22;;;;;;;;;;4893587;29;20099;-76
2023/02/23 02:56:40;;;;;;;3.20;2.10;;;;;;;;;;4893661;29;20029;-77
2023/02/23 06:10:17;;;;;;;5.57;2.53;;;;;;;;;;5896273;23;20073;-78
2023/02/23 06:12:45;;;;;;;9.27;2.80;;;;;;;;;;4930420;29;20043;-77
2023/02/23 06:15:14;;;;;;;6.60;2.65;;;;;;;;;;4932738;29;20035;-78
2023/02/23 06:17:40;;;;;;;4.65;2.67;;;;;;;;;;4932947;29;20028;-78
2023/02/23 06:20:06;;;;;;;9.63;3.10;;;;;;;;;;4932429;29;20028;-78
2023/02/23 06:22:41;;;;;;;5.88;2.22;;;;;;;;;;4932486;29;20065;-78
2023/02/23 06:25:11;;;;;;;7.57;2.42;;;;;;;;;;4931914;29;20095;-78
2023/02/23 06:27:38;;;;;;;27.95;2.92;;;;;;;;;;4932159;29;20127;-78
2023/02/23 06:30:09;;;;;;;7.38;2.40;;;;;;;;;;4944939;29;20103;-78
2023/02/23 06:32:44;;;;;;;6.10;2.15;;;;;;;;;;4932343;29;20052;-78
2023/02/23 06:35:10;;;;;;;5.97;2.47;;;;;;;;;;4920445;29;20025;-77
2023/02/23 06:37:36;;;;;;;4.57;2.50;;;;;;;;;;4927989;29;20032;-77
2023/02/23 06:40:03;;;;;;;9.48;3.33;;;;;;;;;;4931475;29;20032;-76
2023/02/23 06:42:29;;;;;;;3.83;2.65;;;;;;;;;;4930783;29;20060;-77
2023/02/23 06:44:56;;;;;;;7.13;2.45;;;;;;;;;;4931317;29;20028;-76
2023/02/23 06:47:22;;;;;;;7.82;2.67;;;;;;;;;;4931752;29;20028;-77
2023/02/23 06:49:51;;;;;;;9.38;3.00;;;;;;;;;;4931469;29;20078;-78
2023/02/23 06:52:20;;;;;;;5.82;2.20;;;;;;;;;;4930223;29;20024;-77
2023/02/23 06:54:53;;;;;;;8.65;2.85;;;;;;;;;;4931628;29;20031;-78
2023/02/23 07:00:53;;;;;;;8.23;3.30;;;;;;;;;;4906147;29;20039;-77
2023/02/23 07:07:17;;;;;;;11.32;3.05;;;;;;;;;;4931717;29;20452;-77
2023/02/23 07:10:39;;;;;;;7.60;3.30;;;;;;;;;;4893369;29;20029;-77
2023/02/23 07:54:16;;;;;;;9.52;2.80;;;;;;;;;;4838716;29;20054;-77
2023/02/23 07:56:45;;;;;;;5.88;2.42;;;;;;;;;;4838179;29;20050;-79
2023/02/23 07:59:14;;;;;;;5.47;2.80;;;;;;;;;;4919239;29;20025;-79
2023/02/23 08:22:30;;;;;;;3.90;2.70;;;;;;;;;;5965803;23;20028;31
2023/02/23 08:24:58;;;;;;;6.57;3.05;;;;;;;;;;5042801;23;20060;-80
2023/02/23 08:27:28;;;;;;;7.00;2.90;;;;;;;;;;4897996;29;20409;-78
2023/02/23 08:29:59;;;;;;;5.88;2.97;;;;;;;;;;4921380;29;20020;-79
2023/02/23 08:32:25;;;;;;;5.65;2.60;;;;;;;;;;4911224;29;20033;-78
2023/02/23 08:34:52;;;;;;;7.13;3.08;;;;;;;;;;4914267;29;20021;-78
2023/02/23 08:37:18;;;;;;;7.60;3.08;;;;;;;;;;4900969;29;20403;-78
2023/02/23 08:39:44;;;;;;;6.47;3.92;;;;;;;;;;4897361;29;20506;-81
2023/02/23 08:42:10;;;;;;;8.65;3.70;;;;;;;;;;4908459;29;20075;-79
2023/02/23 08:44:36;;;;;;;7.28;5.43;;;;;;;;;;4908106;29;20027;-80
2023/02/23 08:47:05;;;;;;;10.50;3.47;;;;;;;;;;4919764;29;20043;-80
2023/02/23 08:49:32;;;;;;;9.40;4.10;;;;;;;;;;4901649;29;20043;-79
2023/02/23 08:51:58;;;;;;;5.40;3.00;;;;;;;;;;4888332;29;20029;-78
2023/02/23 08:54:24;;;;;;;7.28;3.17;;;;;;;;;;4891216;29;20038;-77
2023/02/23 08:56:50;;;;;;;5.90;2.92;;;;;;;;;;4917237;29;20033;-78
2023/02/23 08:59:16;;;;;;;6.90;3.00;;;;;;;;;;4913686;29;20028;-77
2023/02/23 09:01:42;;;;;;;7.75;2.60;;;;;;;;;;4907288;29;20639;-77
2023/02/23 09:04:09;;;;;;;7.03;3.13;;;;;;;;;;4907332;29;20052;-77
2023/02/23 09:06:36;;;;;;;13.10;3.55;;;;;;;;;;4923082;29;20031;-78
2023/02/23 09:09:02;;;;;;;5.45;3.42;;;;;;;;;;4927755;29;20031;-77
2023/02/23 09:11:31;;;;;;;8.48;3.50;;;;;;;;;;4924027;29;20542;-77
2023/02/23 09:13:57;;;;;;;8.52;3.95;;;;;;;;;;4920440;29;20021;-78
2023/02/23 09:16:24;;;;;;;9.02;3.78;;;;;;;;;;4910982;29;20055;-76
2023/02/23 09:18:50;;;;;;;7.38;3.03;;;;;;;;;;4905513;29;20028;-79
2023/02/23 09:21:19;;;;;;;7.95;3.33;;;;;;;;;;4889578;29;20036;-77
2023/02/23 09:23:48;;;;;;;8.05;3.05;;;;;;;;;;4911772;29;20476;-77
2023/02/23 09:26:17;;;;;;;9.13;3.03;;;;;;;;;;4895237;29;20056;-77
2023/02/23 09:28:43;;;;;;;8.43;3.97;;;;;;;;;;4903457;29;20081;-79
2023/02/23 09:31:16;;;;;;;8.60;3.20;;;;;;;;;;4900571;29;20045;-79
2023/02/23 09:33:42;;;;;;;6.38;3.78;;;;;;;;;;4898352;29;20044;-80
2023/02/23 09:36:15;;;;;;;9.55;3.10;;;;;;;;;;4909752;29;20036;-76
2023/02/23 09:38:41;;;;;;;10.70;2.83;;;;;;;;;;4913693;29;20095;-76
2023/02/23 09:41:26;;;;;;;10.13;3.05;;;;;;;;;;4908516;29;20056;-78
2023/02/23 09:44:01;;;;;;;6.88;2.63;;;;;;;;;;4897283;29;20035;-77
2023/02/23 09:46:46;;;;;;;10.77;3.00;;;;;;;;;;4888856;29;20040;-77
2023/02/23 09:49:20;;;;;;;9.65;3.38;;;;;;;;;;4895790;29;20035;-79
2023/02/23 09:52:00;;;;;;;;;;;;;;;;;;;;;
2023/02/23 09:54:34;;;;;;;8.60;3.05;;;;;;;;;;4888431;29;20064;-78
2023/02/23 09:57:11;;;;;;;8.40;3.10;;;;;;;;;;4897367;29;20041;-77
2023/02/23 09:59:39;;;;;;;13.23;3.28;;;;;;;;;;4909410;29;20025;-77
2023/02/23 10:02:17;;;;;;;9.48;2.97;;;;;;;;;;4908699;29;20024;-77
2023/02/23 10:04:53;;;;;;;7.97;2.85;;;;;;;;;;4898214;29;20029;-80
2023/02/23 10:07:19;;;;;;;;;;;;;;;;;;4895810;29;20033;-77
2023/02/23 10:09:58;;;;;;;10.45;4.30;;;;;;;;;;4894501;29;19979;-77
2023/02/23 10:12:42;;;;;;;10.70;3.83;;;;;;;;;;4884015;29;20025;-77
2023/02/23 10:15:09;;;;;;;6.80;2.60;;;;;;;;;;4875790;29;20021;-76
2023/02/23 10:18:00;;;;;;;8.38;2.70;;;;;;;;;;4898335;29;20489;-79
2023/02/23 10:20:33;;;;;;;7.68;3.08;;;;;;;;;;4886087;29;20033;-78
2023/02/23 10:23:03;;;;;;;8.38;3.28;;;;;;;;;;4890899;29;20060;-78
2023/02/23 10:25:31;;;;;;;7.57;2.72;;;;;;;;;;4898932;29;20917;-77
2023/02/23 10:28:00;;;;;;;8.32;3.78;;;;;;;;;;4917441;29;20040;-80
2023/02/23 10:30:28;;;;;;;9.30;4.25;;;;;;;;;;4908656;29;20032;-78
2023/02/23 10:33:05;;;;;;;12.80;3.28;;;;;;;;;;4916427;29;20059;-78
2023/02/23 10:35:32;;;;;;;7.32;3.35;;;;;;;;;;4911318;29;20025;-80
2023/02/23 10:37:59;;;;;;;8.43;3.67;;;;;;;;;;4924080;29;20059;-78
2023/02/23 10:40:27;;;;;;;7.00;3.28;;;;;;;;;;4927248;29;20021;-78
2023/02/23 10:42:54;;;;;;;7.78;2.90;;;;;;;;;;4926791;29;20053;-79
2023/02/23 10:45:25;;;;;;;10.30;4.03;;;;;;;;;;4921367;29;20037;-78
2023/02/23 10:47:57;;;;;;;7.72;3.53;;;;;;;;;;4930962;29;20028;-78
2023/02/23 10:50:25;;;;;;;9.38;3.28;;;;;;;;;;4919088;29;20028;-80
2023/02/23 10:52:54;;;;;;;10.63;2.95;;;;;;;;;;4912832;29;20035;-79
2023/02/23 10:55:23;;;;;;;11.30;3.30;;;;;;;;;;4922673;29;20037;-77
2023/02/23 10:57:52;;;;;;;8.82;2.55;;;;;;;;;;4907306;29;20028;-78
2023/02/23 11:00:26;;;;;;;6.90;3.30;;;;;;;;;;4913225;29;20092;-81
2023/02/23 11:02:53;;;;;;;7.75;3.45;;;;;;;;;;4926917;29;20009;-80
2023/02/23 11:05:29;;;;;;;10.48;4.00;;;;;;;;;;4925345;29;20088;-79
2023/02/23 11:08:14;;;;;;;9.07;3.53;;;;;;;;;;4924218;29;20035;-78
2023/02/23 11:10:41;;;;;;;15.33;4.10;;;;;;;;;;4915502;29;20029;-79
2023/02/23 11:13:20;;;;;;;9.60;3.67;;;;;;;;;;4919254;29;20036;-80
2023/02/23 11:15:46;;;;;;;8.55;3.70;;;;;;;;;;4925515;29;20024;-81
2023/02/23 11:18:18;;;;;;;8.40;3.40;;;;;;;;;;4921045;29;20032;-79
2023/02/23 11:20:44;;;;;;;8.90;3.38;;;;;;;;;;4932362;29;20028;-78
2023/02/23 11:23:21;;;;;;;5.47;3.25;;;;;;;;;;4910586;29;20013;-80
2023/02/23 11:25:47;;;;;;;9.48;3.25;;;;;;;;;;4902579;29;20045;-80
2023/02/23 11:33:34;;;;;;;9.95;3.38;;;;;;;;;;5363544;23;20033;-79
2023/02/23 11:36:12;;;;;;;10.43;2.70;;;;;;;;;;4899922;29;20404;-79
2023/02/23 11:38:38;;;;;;;10.45;2.65;;;;;;;;;;4900485;29;20203;-80
2023/02/23 11:41:10;;;;;;;9.45;3.10;;;;;;;;;;4882278;29;20033;-78
2023/02/23 11:43:36;;;;;;;9.30;3.20;;;;;;;;;;4893642;29;20128;-78
2023/02/23 11:46:03;;;;;;;9.57;3.40;;;;;;;;;;4891741;29;20044;-79
2023/02/23 11:48:32;;;;;;;8.43;3.42;;;;;;;;;;4881417;29;20036;-80
2023/02/23 11:50:59;;;;;;;11.00;3.45;;;;;;;;;;4876901;29;20100;-78
2023/02/23 11:53:28;;;;;;;11.25;3.45;;;;;;;;;;4899536;29;20025;-78
2023/02/23 11:56:09;;;;;;;7.72;2.83;;;;;;;;;;4878420;29;20025;-84
2023/02/23 11:58:49;;;;;;;7.47;3.15;;;;;;;;;;4895069;29;20037;-79
2023/02/23 12:01:17;;;;;;;14.45;4.25;;;;;;;;;;4888544;29;20022;-80
2023/02/23 12:03:50;;;;;;;6.93;2.65;;;;;;;;;;4900407;29;20025;-79
2023/02/23 12:06:30;;;;;;;8.88;3.25;;;;;;;;;;4899335;29;20081;-78
2023/02/23 12:09:17;;;;;;;14.57;3.55;;;;;;;;;;4887689;29;20031;-80
2023/02/23 12:11:45;;;;;;;6.97;3.17;;;;;;;;;;4886309;29;20100;-80
2023/02/23 12:14:24;;;;;;;6.20;3.05;;;;;;;;;;4887385;29;20035;-79
2023/02/23 12:16:53;;;;;;;6.65;2.65;;;;;;;;;;4888876;29;20061;-80
2023/02/23 12:19:25;;;;;;;8.23;2.55;;;;;;;;;;4887376;29;20278;-79
2023/02/23 12:22:03;;;;;;;7.38;3.50;;;;;;;;;;4887605;29;20036;-79
2023/02/23 12:24:29;;;;;;;9.07;3.58;;;;;;;;;;4874594;29;20105;-81
2023/02/23 12:26:59;;;;;;;6.00;2.83;;;;;;;;;;4890360;29;20088;-80
2023/02/23 12:29:44;;;;;;;7.45;2.90;;;;;;;;;;4883952;29;20376;-78
2023/02/23 12:32:13;;;;;;;6.38;2.50;;;;;;;;;;4875224;29;20096;-79
2023/02/23 12:34:49;;;;;;;7.00;3.05;;;;;;;;;;4861690;29;20033;-83
2023/02/23 12:37:28;;;;;;;6.13;2.35;;;;;;;;;;4877922;29;20040;-81
2023/02/23 12:40:02;;;;;;;5.53;2.58;;;;;;;;;;4874848;29;20107;-79
2023/02/23 12:42:42;;;;;;;6.00;2.88;;;;;;;;;;4874081;29;20033;-83
2023/02/23 12:45:15;;;;;;;6.60;2.40;;;;;;;;;;4877892;29;20048;-83
2023/02/23 12:47:46;;;;;;;4.22;2.45;;;;;;;;;;4876889;29;20033;-82
2023/02/23 12:50:29;;;;;;;5.70;2.30;;;;;;;;;;4875773;29;20029;-81
2023/02/23 12:52:58;;;;;;;7.68;2.55;;;;;;;;;;4872511;29;20029;-80
2023/02/23 12:55:40;;;;;;;7.18;2.50;;;;;;;;;;4873365;29;20064;-82
2023/02/23 12:58:23;;;;;;;8.75;2.97;;;;;;;;;;4870593;29;20037;-80
2023/02/23 13:01:05;;;;;;;5.07;2.50;;;;;;;;;;4875561;29;20033;-83
2023/02/23 13:03:40;;;;;;;6.25;2.67;;;;;;;;;;4875669;29;20045;-81
2023/02/23 13:06:11;;;;;;;4.60;2.33;;;;;;;;;;4872676;29;20037;-83
2023/02/23 13:08:56;;;;;;;7.38;2.42;;;;;;;;;;4874807;29;20116;-82
2023/02/23 13:11:40;;;;;;;7.43;2.88;;;;;;;;;;4871990;29;20104;-84
2023/02/23 13:14:12;;;;;;;7.18;2.50;;;;;;;;;;4883567;29;20049;-83
2023/02/23 13:16:44;;;;;;;10.57;3.08;;;;;;;;;;4877852;29;20069;-84
2023/02/23 13:19:19;;;;;;;6.65;2.45;;;;;;;;;;4880888;29;20033;-83
2023/02/23 13:21:52;;;;;;;5.47;2.47;;;;;;;;;;4876733;29;20050;-83
2023/02/23 13:24:21;;;;;;;6.25;2.40;;;;;;;;;;4873687;29;20682;-82
2023/02/23 13:26:59;;;;;;;7.68;2.40;;;;;;;;;;4873442;29;20083;-81
2023/02/23 13:29:38;;;;;;;8.50;2.63;;;;;;;;;;4875410;29;20564;-83
2023/02/23 13:32:09;;;;;;;6.75;2.10;;;;;;;;;;4873216;29;20842;-82
2023/02/23 13:34:39;;;;;;;6.68;1.90;;;;;;;;;;4853423;29;20042;-86
2023/02/23 13:37:06;;;;;;;6.32;2.30;;;;;;;;;;4844833;29;20113;-85
2023/02/23 13:39:33;;;;;;;5.07;2.40;;;;;;;;;;4860161;29;20057;-82
2023/02/23 13:42:11;;;;;;;4.30;2.30;;;;;;;;;;4859224;29;20549;-85
2023/02/23 13:44:40;;;;;;;5.53;2.20;;;;;;;;;;4859845;29;20121;-81
2023/02/23 13:47:13;;;;;;;3.67;2.30;;;;;;;;;;4838405;29;20034;-82
2023/02/23 13:49:46;;;;;;;7.85;2.30;;;;;;;;;;4854148;29;20466;-79
2023/02/23 13:52:25;;;;;;;3.08;2.10;;;;;;;;;;4854323;29;20104;-80
2023/02/23 13:55:03;;;;;;;6.05;2.15;;;;;;;;;;4856466;29;20122;-81
2023/02/23 13:57:30;;;;;;;5.47;1.95;;;;;;;;;;4860609;29;20109;-79
2023/02/23 13:59:57;;;;;;;4.60;2.15;;;;;;;;;;4855459;29;20038;-78
2023/02/23 14:02:24;;;;;;;4.93;2.20;;;;;;;;;;4843601;29;20078;-76
2023/02/23 14:04:50;;;;;;;3.85;2.05;;;;;;;;;;4873072;29;20089;-78
2023/02/23 14:07:21;;;;;;;6.30;2.50;;;;;;;;;;4847174;29;20053;-77
2023/02/23 14:09:54;;;;;;;5.70;2.00;;;;;;;;;;4847330;29;20036;-75
2023/02/23 14:12:33;;;;;;;7.35;2.50;;;;;;;;;;4864600;29;20112;-77
2023/02/23 14:15:18;;;;;;;4.70;2.00;;;;;;;;;;4863741;29;20327;-77
2023/02/23 14:17:54;;;;;;;5.88;2.55;;;;;;;;;;4855189;29;20044;-77
2023/02/23 14:20:26;;;;;;;2.80;2.13;;;;;;;;;;4860478;29;20060;-77
2023/02/23 14:23:10;;;;;;;3.63;2.35;;;;;;;;;;4856200;29;20128;-78
2023/02/23 14:25:37;;;;;;;10.48;3.28;;;;;;;;;;4859686;29;20037;-76
2023/02/23 14:28:21;;;;;;;7.03;2.47;;;;;;;;;;4860701;29;20033;-76
2023/02/23 14:30:54;;;;;;;8.55;2.45;;;;;;;;;;4861354;29;20433;-76
2023/02/23 14:33:39;;;;;;;7.00;2.40;;;;;;;;;;4872402;29;20049;-77
2023/02/23 14:36:28;;;;;;;2.80;2.20;;;;;;;;;;4889078;29;20037;-79
2023/02/23 14:39:00;;;;;;;4.85;2.28;;;;;;;;;;4871234;29;20025;-77
2023/02/23 14:41:38;;;;;;;5.70;2.65;;;;;;;;;;4889100;29;20037;-78
2023/02/23 14:44:11;;;;;;;4.88;2.67;;;;;;;;;;4888425;29;20041;-77
2023/02/23 14:46:38;;;;;;;4.38;2.03;;;;;;;;;;4889513;29;20040;-77
2023/02/23 14:49:10;;;;;;;5.38;2.72;;;;;;;;;;4898370;29;20017;-78
2023/02/23 14:51:41;;;;;;;3.33;2.00;;;;;;;;;;4882216;29;20025;-76
2023/02/23 14:54:14;;;;;;;6.90;2.15;;;;;;;;;;4885850;29;20052;-79
2023/02/23 14:56:47;;;;;;;4.40;1.92;;;;;;;;;;4897108;29;20567;-82
2023/02/23 14:59:23;;;;;;;4.35;2.03;;;;;;;;;;4893869;29;20049;-80
2023/02/23 15:01:51;;;;;;;3.17;2.00;;;;;;;;;;4899895;29;20056;-78
2023/02/23 15:04:19;;;;;;;2.97;2.28;;;;;;;;;;4891961;29;20044;-78
2023/02/23 15:06:48;;;;;;;4.00;1.92;;;;;;;;;;4907331;29;20091;-79
2023/02/23 15:09:29;;;;;;;3.85;2.38;;;;;;;;;;4889289;29;20060;-78
2023/02/23 15:11:56;;;;;;;3.75;2.30;;;;;;;;;;4880083;29;20033;-77
2023/02/23 15:14:23;;;;;;;4.10;2.10;;;;;;;;;;4890831;29;20036;-77
2023/02/23 15:16:50;;;;;;;3.85;2.00;;;;;;;;;;4889251;29;20036;-79
2023/02/23 15:19:22;;;;;;;2.78;2.10;;;;;;;;;;4884032;29;20033;-78
2023/02/23 15:21:51;;;;;;;6.18;2.53;;;;;;;;;;4877408;29;20392;-78
2023/02/23 15:24:23;;;;;;;3.35;2.13;;;;;;;;;;4886741;29;20502;-79
2023/02/23 15:26:49;;;;;;;19.83;12.10;;;;;;;;;;4882339;29;20079;-78
2023/02/23 15:29:17;;;;;;;100.75;55.40;;;;;;;;;;4885550;29;20099;-78
2023/02/23 15:31:51;;;;;;;96.57;55.88;;;;;;;;;;4882483;29;20047;-79
2023/02/23 15:34:35;;;;;;;20.05;12.95;;;;;;;;;;4890336;29;20269;-79
2023/02/23 15:37:03;;;;;;;8.45;4.10;;;;;;;;;;4895189;29;20021;-78
2023/02/23 15:39:34;;;;;;;7.07;2.60;;;;;;;;;;4887071;29;20036;-77
2023/02/23 15:42:01;;;;;;;5.65;2.80;;;;;;;;;;4886340;29;20160;-78
2023/02/23 15:44:31;;;;;;;6.32;2.83;;;;;;;;;;4880982;29;20398;-77
2023/02/23 15:47:00;;;;;;;7.80;3.10;;;;;;;;;;4885099;29;20029;-77
2023/02/23 15:49:40;;;;;;;11.32;5.53;;;;;;;;;;4889270;29;20025;-78
2023/02/23 15:52:08;;;;;;;8.00;4.75;;;;;;;;;;4881534;29;20060;-77
2023/02/23 15:54:36;;;;;;;6.18;3.72;;;;;;;;;;4891688;29;20494;-78
2023/02/23 15:57:05;;;;;;;6.32;3.50;;;;;;;;;;4892043;29;20088;-77
2023/02/23 15:59:35;;;;;;;9.30;4.30;;;;;;;;;;4877283;29;20121;-77
2023/02/23 16:02:02;;;;;;;5.13;4.07;;;;;;;;;;4899416;29;20044;-79
2023/02/23 16:04:31;;;;;;;5.95;3.28;;;;;;;;;;4892815;29;20040;-79
2023/02/23 16:07:15;;;;;;;5.95;3.10;;;;;;;;;;4878342;29;20206;-77
2023/02/23 16:10:00;;;;;;;9.90;4.38;;;;;;;;;;4889075;29;20380;-78
2023/02/23 16:12:31;;;;;;;10.63;5.13;;;;;;;;;;4885700;29;20032;-79
2023/02/23 16:15:05;;;;;;;8.73;3.95;;;;;;;;;;4886299;29;20025;-78
2023/02/23 16:17:48;;;;;;;10.23;5.05;;;;;;;;;;4868061;29;20044;-76
2023/02/23 16:20:25;;;;;;;9.95;5.10;;;;;;;;;;4870088;29;20367;-78
2023/02/23 16:22:53;;;;;;;6.47;4.80;;;;;;;;;;4881775;29;20063;-77
2023/02/23 16:25:20;;;;;;;8.65;3.92;;;;;;;;;;4878680;29;20122;-78
2023/02/23 16:27:50;;;;;;;7.72;4.38;;;;;;;;;;4882882;29;20041;-77
2023/02/23 16:30:17;;;;;;;7.15;4.03;;;;;;;;;;4882408;29;20028;-76
2023/02/23 16:32:44;;;;;;;13.02;4.65;;;;;;;;;;4870771;29;20392;-77
2023/02/23 16:35:20;;;;;;;12.20;7.72;;;;;;;;;;4871539;29;20036;-77
2023/02/23 16:37:57;;;;;;;13.65;6.60;;;;;;;;;;4855794;29;20041;-76
2023/02/23 16:40:24;;;;;;;12.20;6.38;;;;;;;;;;4873698;29;20058;-76
2023/02/23 16:42:50;;;;;;;11.80;5.03;;;;;;;;;;4878716;29;20396;-77
2023/02/23 16:45:16;;;;;;;14.63;5.15;;;;;;;;;;4872274;29;20033;-78
2023/02/23 16:47:47;;;;;;;10.18;4.78;;;;;;;;;;4870369;29;20064;-78
2023/02/23 16:50:17;;;;;;;8.50;4.97;;;;;;;;;;4876381;29;20029;-77
2023/02/23 16:52:50;;;;;;;15.77;6.82;;;;;;;;;;4876667;29;20029;-77
2023/02/23 16:55:17;;;;;;;7.13;4.47;;;;;;;;;;4885011;29;20357;-77
2023/02/23 16:57:45;;;;;;;8.88;4.10;;;;;;;;;;4876302;29;20028;-78
2023/02/23 17:00:13;;;;;;;7.60;4.65;;;;;;;;;;4881375;29;20028;-78
2023/02/23 17:02:39;;;;;;;10.23;4.10;;;;;;;;;;4883010;29;20029;-77
2023/02/23 17:05:13;;;;;;;6.85;4.20;;;;;;;;;;4853786;29;20874;-76
2023/02/23 17:07:39;;;;;;;9.13;4.60;;;;;;;;;;4862997;29;20085;-77
2023/02/23 17:10:06;;;;;;;6.80;3.83;;;;;;;;;;4877181;29;20112;-78
2023/02/23 17:12:32;;;;;;;13.00;5.90;;;;;;;;;;4876530;29;21006;-77
2023/02/23 17:14:58;;;;;;;9.65;5.13;;;;;;;;;;4859366;29;20037;-77
2023/02/23 17:17:25;;;;;;;9.43;4.30;;;;;;;;;;4878824;29;20084;-77
2023/02/23 17:19:51;;;;;;;15.75;6.15;;;;;;;;;;4880178;29;20037;-78
2023/02/23 17:22:17;;;;;;;12.45;6.00;;;;;;;;;;4879567;29;20037;-76
2023/02/23 17:24:43;;;;;;;7.28;4.00;;;;;;;;;;4885088;29;20077;-77
2023/02/23 17:27:10;;;;;;;9.68;4.63;;;;;;;;;;4881585;29;20044;-77
2023/02/23 17:29:36;;;;;;;12.75;6.20;;;;;;;;;;4876503;29;20507;-77
2023/02/23 17:32:02;;;;;;;8.90;4.80;;;;;;;;;;4873215;29;20033;-77
2023/02/23 17:34:29;;;;;;;19.40;10.80;;;;;;;;;;4877765;29;20040;-78
2023/02/23 17:36:55;;;;;;;11.35;5.78;;;;;;;;;;4880859;29;20419;-76
2023/02/23 17:39:26;;;;;;;10.18;6.03;;;;;;;;;;4875161;29;20045;-77
2023/02/23 17:41:53;;;;;;;13.35;8.43;;;;;;;;;;4876270;29;20035;-76
2023/02/23 17:44:19;;;;;;;22.70;12.43;;;;;;;;;;4861276;29;20036;-76
2023/02/23 17:46:45;;;;;;;29.30;13.55;;;;;;;;;;4872930;29;20108;-77
2023/02/23 17:49:11;;;;;;;31.92;16.13;;;;;;;;;;4859856;29;20147;-79
2023/02/23 17:51:37;;;;;;;27.35;12.38;;;;;;;;;;4873356;29;20056;-77
2023/02/23 17:54:03;;;;;;;18.90;10.13;;;;;;;;;;4872957;29;20522;-78
2023/02/23 17:56:30;;;;;;;14.07;7.78;;;;;;;;;;4874596;29;20112;-77
2023/02/23 17:58:56;;;;;;;13.00;8.05;;;;;;;;;;4879289;29;20009;-82
2023/02/23 18:01:22;;;;;;;13.10;6.80;;;;;;;;;;4886335;29;20150;-77
2023/02/23 18:03:49;;;;;;;14.13;6.65;;;;;;;;;;4884380;29;20104;-78
2023/02/23 18:06:15;;;;;;;10.18;6.18;;;;;;;;;;4883486;29;20155;-78
2023/02/23 18:08:42;;;;;;;10.40;5.20;;;;;;;;;;4879909;29;20084;-78
2023/02/23 18:11:08;;;;;;;30.15;12.40;;;;;;;;;;4889844;29;20132;-78
2023/02/23 18:13:35;;;;;;;29.02;11.10;;;;;;;;;;4884178;29;20029;-77
2023/02/23 18:16:04;;;;;;;89.20;31.95;;;;;;;;;;4881419;29;20087;-79
2023/02/23 18:18:31;;;;;;;98.15;34.90;;;;;;;;;;4866738;29;20048;-78
2023/02/23 18:20:58;;;;;;;63.85;27.45;;;;;;;;;;4879414;29;20032;-77
2023/02/23 18:23:27;;;;;;;30.83;15.18;;;;;;;;;;4884900;29;20040;-78
2023/02/23 18:25:54;;;;;;;112.95;37.55;;;;;;;;;;4863035;29;20025;-76
2023/02/23 18:28:20;;;;;;;92.55;37.30;;;;;;;;;;4880769;29;20628;-79
2023/02/23 18:30:46;;;;;;;55.80;23.95;;;;;;;;;;4879224;29;20033;-78
2023/02/23 18:33:13;;;;;;;23.40;13.35;;;;;;;;;;4880865;29;20063;-78
2023/02/23 18:35:40;;;;;;;44.83;23.80;;;;;;;;;;4887220;29;20488;-79
2023/02/23 18:38:07;;;;;;;31.58;17.08;;;;;;;;;;4882134;29;20049;-76
2023/02/23 18:40:34;;;;;;;17.35;10.18;;;;;;;;;;4891117;29;20032;-81
2023/02/23 18:43:02;;;;;;;14.43;10.00;;;;;;;;;;4894057;29;20048;-79
2023/02/23 18:45:28;;;;;;;12.73;8.85;;;;;;;;;;4905445;29;20037;-79
2023/02/23 18:47:55;;;;;;;15.85;9.48;;;;;;;;;;4904857;29;20045;-80
2023/02/23 18:50:25;;;;;;;11.10;8.73;;;;;;;;;;4894664;29;20096;-78
2023/02/23 18:52:52;;;;;;;12.73;9.20;;;;;;;;;;4891832;29;20033;-76
2023/02/23 18:55:18;;;;;;;62.63;29.88;;;;;;;;;;4891884;29;20035;-78
2023/02/23 18:57:44;;;;;;;40.50;23.63;;;;;;;;;;4893448;29;20033;-78
2023/02/23 19:00:12;;;;;;;27.75;19.17;;;;;;;;;;4869386;29;20117;-78
2023/02/23 19:02:42;;;;;;;26.02;19.23;;;;;;;;;;4867111;29;20033;-79
2023/02/23 19:05:11;;;;;;;20.08;14.77;;;;;;;;;;4886189;29;20025;-76
2023/02/23 19:07:38;;;;;;;10.05;7.10;;;;;;;;;;4888036;29;20029;-79
2023/02/23 19:10:06;;;;;;;10.45;9.32;;;;;;;;;;4891190;29;20033;-79
2023/02/23 19:12:32;;;;;;;14.18;9.75;;;;;;;;;;4888450;29;20027;-78
2023/02/23 19:14:58;;;;;;;12.27;8.40;;;;;;;;;;4873536;29;20037;-78
2023/02/23 19:17:25;;;;;;;15.73;12.45;;;;;;;;;;4882846;29;20141;-78
2023/02/23 19:19:54;;;;;;;16.73;9.65;;;;;;;;;;4882148;29;20033;-79
2023/02/23 19:22:21;;;;;;;23.35;17.52;;;;;;;;;;4884030;29;20024;-78
2023/02/23 19:24:47;;;;;;;31.98;23.10;;;;;;;;;;4885843;29;20056;-76
2023/02/23 19:27:14;;;;;;;23.67;17.45;;;;;;;;;;4889241;29;20058;-78
2023/02/23 19:29:40;;;;;;;26.27;18.20;;;;;;;;;;4886900;29;20092;-78
2023/02/23 19:32:07;;;;;;;19.08;14.68;;;;;;;;;;4892043;29;20040;-76
2023/02/23 19:34:33;;;;;;;21.33;15.57;;;;;;;;;;4887564;29;20053;-78
2023/02/23 19:36:59;;;;;;;14.88;11.52;;;;;;;;;;4873017;29;20041;-76
2023/02/23 19:39:25;;;;;;;21.38;12.88;;;;;;;;;;4875627;29;20117;-78
2023/02/23 19:41:51;;;;;;;32.13;21.73;;;;;;;;;;4863941;29;20036;-78
2023/02/23 19:44:17;;;;;;;35.75;20.08;;;;;;;;;;4878128;29;20037;-78
2023/02/23 19:46:44;;;;;;;41.13;22.77;;;;;;;;;;4882428;29;20066;-77
2023/02/23 19:49:10;;;;;;;24.02;14.20;;;;;;;;;;4882790;29;20481;-78
2023/02/23 19:51:37;;;;;;;12.15;8.10;;;;;;;;;;4893249;29;20029;-76
2023/02/23 19:54:05;;;;;;;13.15;10.27;;;;;;;;;;4874902;29;20045;-78
2023/02/23 19:56:31;;;;;;;13.43;11.27;;;;;;;;;;4874390;29;20033;-77
2023/02/23 19:58:59;;;;;;;13.20;9.05;;;;;;;;;;4884236;29;20065;-78
2023/02/23 20:01:27;;;;;;;14.07;8.32;;;;;;;;;;4885388;29;20029;-77
2023/02/23 20:04:00;;;;;;;14.95;11.32;;;;;;;;;;4886625;29;20036;-78
2023/02/23 20:06:29;;;;;;;23.55;17.08;;;;;;;;;;4868995;29;20029;-77
2023/02/23 20:08:57;;;;;;;24.00;15.93;;;;;;;;;;4871369;29;20025;-76
2023/02/23 20:11:23;;;;;;;24.88;17.20;;;;;;;;;;4890030;29;20033;-76
2023/02/23 20:13:50;;;;;;;19.05;15.35;;;;;;;;;;4877667;29;20112;-76
2023/02/23 20:16:16;;;;;;;28.75;19.77;;;;;;;;;;4876306;29;20032;-77
2023/02/23 20:18:43;;;;;;;16.73;13.77;;;;;;;;;;4869648;29;20038;-76
2023/02/23 20:21:13;;;;;;;9.45;7.20;;;;;;;;;;4881418;29;20020;-77